sensor_id;sensor_type;location;lat;lon;timestamp;temperature;humidity
12504;DHT22;6316;48.118;-1.690;2022-08-24T00:01:29;22.10;99.90
12504;DHT22;6316;48.118;-1.690;2022-08-24T00:03:55;22.00;99.90
12504;DHT22;6316;48.118;-1.690;2022-08-24T00:06:24;22.00;99.90
12504;DHT22;6316;48.118;-1.690;2022-08-24T00:08:52;22.00;99.90
12504;DHT22;6316;48.118;-1.690;2022-08-24T00:11:18;21.90;99.90
12504;DHT22;6316;48.118;-1.690;2022-08-24T00:13:45;21.90;99.90
12504;DHT22;6316;48.118;-1.690;2022-08-24T00:16:11;21.90;99.90
12504;DHT22;6316;48.118;-1.690;2022-08-24T00:18:37;21.90;99.90
12504;DHT22;6316;48.118;-1.690;2022-08-24T00:21:04;21.80;99.90
12504;DHT22;6316;48.118;-1.690;2022-08-24T00:23:30;21.80;99.90
12504;DHT22;6316;48.118;-1.690;2022-08-24T00:25:56;21.80;99.90
12504;DHT22;6316;48.118;-1.690;2022-08-24T00:28:22;21.70;99.90
12504;DHT22;6316;48.118;-1.690;2022-08-24T00:30:48;21.70;99.90
12504;DHT22;6316;48.118;-1.690;2022-08-24T00:33:14;21.70;99.90
12504;DHT22;6316;48.118;-1.690;2022-08-24T00:35:39;21.70;99.90
12504;DHT22;6316;48.118;-1.690;2022-08-24T00:38:05;21.60;99.90
12504;DHT22;6316;48.118;-1.690;2022-08-24T00:40:37;21.60;99.90
12504;DHT22;6316;48.118;-1.690;2022-08-24T00:43:05;21.60;99.90
12504;DHT22;6316;48.118;-1.690;2022-08-24T00:45:34;21.60;99.90
12504;DHT22;6316;48.118;-1.690;2022-08-24T00:48:04;21.50;99.90
12504;DHT22;6316;48.118;-1.690;2022-08-24T00:53:12;21.50;99.90
12504;DHT22;6316;48.118;-1.690;2022-08-24T00:55:49;21.50;99.90
12504;DHT22;6316;48.118;-1.690;2022-08-24T00:58:19;21.50;99.90
12504;DHT22;6316;48.118;-1.690;2022-08-24T01:00:51;21.40;99.90
12504;DHT22;6316;48.118;-1.690;2022-08-24T01:03:19;21.40;99.90
12504;DHT22;6316;48.118;-1.690;2022-08-24T01:05:45;21.40;99.90
12504;DHT22;6316;48.118;-1.690;2022-08-24T01:08:12;21.30;99.90
12504;DHT22;6316;48.118;-1.690;2022-08-24T01:10:42;21.40;99.90
12504;DHT22;6316;48.118;-1.690;2022-08-24T01:13:10;21.30;99.90
12504;DHT22;6316;48.118;-1.690;2022-08-24T01:15:39;21.30;99.90
12504;DHT22;6316;48.118;-1.690;2022-08-24T01:18:07;21.30;99.90
12504;DHT22;6316;48.118;-1.690;2022-08-24T01:21:21;21.20;99.90
12504;DHT22;6316;48.118;-1.690;2022-08-24T01:23:48;21.20;99.90
12504;DHT22;6316;48.118;-1.690;2022-08-24T01:26:30;21.20;99.90
12504;DHT22;6316;48.118;-1.690;2022-08-24T01:29:02;21.10;99.90
12504;DHT22;6316;48.118;-1.690;2022-08-24T01:31:28;21.10;99.90
12504;DHT22;6316;48.118;-1.690;2022-08-24T01:33:55;21.10;99.90
12504;DHT22;6316;48.118;-1.690;2022-08-24T01:38:53;21.00;99.90
12504;DHT22;6316;48.118;-1.690;2022-08-24T01:41:19;21.00;99.90
12504;DHT22;6316;48.118;-1.690;2022-08-24T01:43:45;21.00;99.90
12504;DHT22;6316;48.118;-1.690;2022-08-24T01:46:11;21.00;99.90
12504;DHT22;6316;48.118;-1.690;2022-08-24T01:48:36;21.00;99.90
12504;DHT22;6316;48.118;-1.690;2022-08-24T01:51:02;20.90;99.90
12504;DHT22;6316;48.118;-1.690;2022-08-24T01:53:28;20.90;99.90
12504;DHT22;6316;48.118;-1.690;2022-08-24T01:55:54;20.90;99.90
12504;DHT22;6316;48.118;-1.690;2022-08-24T01:58:20;20.80;99.90
12504;DHT22;6316;48.118;-1.690;2022-08-24T02:00:45;20.80;99.90
12504;DHT22;6316;48.118;-1.690;2022-08-24T02:03:11;20.80;99.90
12504;DHT22;6316;48.118;-1.690;2022-08-24T02:05:37;20.80;99.90
12504;DHT22;6316;48.118;-1.690;2022-08-24T02:08:03;20.70;99.90
12504;DHT22;6316;48.118;-1.690;2022-08-24T02:10:29;20.70;99.90
12504;DHT22;6316;48.118;-1.690;2022-08-24T02:12:57;20.70;99.90
12504;DHT22;6316;48.118;-1.690;2022-08-24T02:15:31;20.70;99.90
12504;DHT22;6316;48.118;-1.690;2022-08-24T02:17:58;20.70;99.90
12504;DHT22;6316;48.118;-1.690;2022-08-24T02:20:24;20.70;99.90
12504;DHT22;6316;48.118;-1.690;2022-08-24T02:22:51;20.60;99.90
12504;DHT22;6316;48.118;-1.690;2022-08-24T02:25:17;20.60;99.90
12504;DHT22;6316;48.118;-1.690;2022-08-24T02:27:43;20.60;99.90
12504;DHT22;6316;48.118;-1.690;2022-08-24T02:30:09;20.60;99.90
12504;DHT22;6316;48.118;-1.690;2022-08-24T02:32:35;20.60;99.90
12504;DHT22;6316;48.118;-1.690;2022-08-24T02:35:00;20.50;99.90
12504;DHT22;6316;48.118;-1.690;2022-08-24T02:37:26;20.50;99.90
12504;DHT22;6316;48.118;-1.690;2022-08-24T02:39:52;20.50;99.90
12504;DHT22;6316;48.118;-1.690;2022-08-24T02:42:18;20.50;99.90
12504;DHT22;6316;48.118;-1.690;2022-08-24T02:44:43;20.40;99.90
12504;DHT22;6316;48.118;-1.690;2022-08-24T02:47:09;20.40;99.90
12504;DHT22;6316;48.118;-1.690;2022-08-24T02:49:35;20.40;99.90
12504;DHT22;6316;48.118;-1.690;2022-08-24T02:52:01;20.40;99.90
12504;DHT22;6316;48.118;-1.690;2022-08-24T02:54:27;20.40;99.90
12504;DHT22;6316;48.118;-1.690;2022-08-24T02:56:53;20.30;99.90
12504;DHT22;6316;48.118;-1.690;2022-08-24T02:59:19;20.30;99.90
12504;DHT22;6316;48.118;-1.690;2022-08-24T03:01:45;20.30;99.90
12504;DHT22;6316;48.118;-1.690;2022-08-24T03:04:12;20.20;99.90
12504;DHT22;6316;48.118;-1.690;2022-08-24T03:06:37;20.20;99.90
12504;DHT22;6316;48.118;-1.690;2022-08-24T03:09:03;20.20;99.90
12504;DHT22;6316;48.118;-1.690;2022-08-24T03:11:29;20.20;99.90
12504;DHT22;6316;48.118;-1.690;2022-08-24T03:13:56;20.20;99.90
12504;DHT22;6316;48.118;-1.690;2022-08-24T03:16:24;20.10;99.90
12504;DHT22;6316;48.118;-1.690;2022-08-24T03:18:50;20.10;99.90
12504;DHT22;6316;48.118;-1.690;2022-08-24T03:21:16;20.10;99.90
12504;DHT22;6316;48.118;-1.690;2022-08-24T03:23:42;20.10;99.90
12504;DHT22;6316;48.118;-1.690;2022-08-24T03:26:07;20.10;99.90
12504;DHT22;6316;48.118;-1.690;2022-08-24T03:28:33;20.10;99.90
12504;DHT22;6316;48.118;-1.690;2022-08-24T03:30:59;20.10;99.90
12504;DHT22;6316;48.118;-1.690;2022-08-24T03:33:25;20.10;99.90
12504;DHT22;6316;48.118;-1.690;2022-08-24T03:35:51;20.10;99.90
12504;DHT22;6316;48.118;-1.690;2022-08-24T03:38:18;20.10;99.90
12504;DHT22;6316;48.118;-1.690;2022-08-24T03:40:45;20.10;99.90
12504;DHT22;6316;48.118;-1.690;2022-08-24T03:43:11;20.10;99.90
12504;DHT22;6316;48.118;-1.690;2022-08-24T03:45:57;20.10;99.90
12504;DHT22;6316;48.118;-1.690;2022-08-24T03:48:23;20.00;99.90
12504;DHT22;6316;48.118;-1.690;2022-08-24T03:50:49;20.00;99.90
12504;DHT22;6316;48.118;-1.690;2022-08-24T03:53:15;20.00;99.90
12504;DHT22;6316;48.118;-1.690;2022-08-24T03:55:41;19.90;99.90
12504;DHT22;6316;48.118;-1.690;2022-08-24T03:58:06;19.90;99.90
12504;DHT22;6316;48.118;-1.690;2022-08-24T04:00:32;19.90;99.90
12504;DHT22;6316;48.118;-1.690;2022-08-24T04:02:58;19.90;99.90
12504;DHT22;6316;48.118;-1.690;2022-08-24T04:05:24;19.90;99.90
12504;DHT22;6316;48.118;-1.690;2022-08-24T04:07:49;19.90;99.90
12504;DHT22;6316;48.118;-1.690;2022-08-24T04:10:15;19.90;99.90
12504;DHT22;6316;48.118;-1.690;2022-08-24T04:12:40;19.90;99.90
12504;DHT22;6316;48.118;-1.690;2022-08-24T04:15:06;19.90;99.90
12504;DHT22;6316;48.118;-1.690;2022-08-24T04:17:32;19.90;99.90
12504;DHT22;6316;48.118;-1.690;2022-08-24T04:19:58;19.80;99.90
12504;DHT22;6316;48.118;-1.690;2022-08-24T04:22:25;19.80;99.90
12504;DHT22;6316;48.118;-1.690;2022-08-24T04:24:51;19.80;99.90
12504;DHT22;6316;48.118;-1.690;2022-08-24T04:27:18;19.80;99.90
12504;DHT22;6316;48.118;-1.690;2022-08-24T04:29:43;19.70;99.90
12504;DHT22;6316;48.118;-1.690;2022-08-24T04:32:09;19.70;99.90
12504;DHT22;6316;48.118;-1.690;2022-08-24T04:34:35;19.70;99.90
12504;DHT22;6316;48.118;-1.690;2022-08-24T04:37:00;19.70;99.90
12504;DHT22;6316;48.118;-1.690;2022-08-24T04:39:26;19.70;99.90
12504;DHT22;6316;48.118;-1.690;2022-08-24T04:41:52;19.70;99.90
12504;DHT22;6316;48.118;-1.690;2022-08-24T04:44:17;19.70;99.90
12504;DHT22;6316;48.118;-1.690;2022-08-24T04:46:43;19.60;99.90
12504;DHT22;6316;48.118;-1.690;2022-08-24T04:49:09;19.60;99.90
12504;DHT22;6316;48.118;-1.690;2022-08-24T04:51:36;19.60;99.90
12504;DHT22;6316;48.118;-1.690;2022-08-24T04:54:02;19.60;99.90
12504;DHT22;6316;48.118;-1.690;2022-08-24T04:56:27;19.60;99.90
12504;DHT22;6316;48.118;-1.690;2022-08-24T04:58:54;19.50;99.90
12504;DHT22;6316;48.118;-1.690;2022-08-24T05:01:24;19.50;99.90
12504;DHT22;6316;48.118;-1.690;2022-08-24T05:03:51;19.50;99.90
12504;DHT22;6316;48.118;-1.690;2022-08-24T05:06:19;19.50;99.90
12504;DHT22;6316;48.118;-1.690;2022-08-24T05:08:45;19.50;99.90
12504;DHT22;6316;48.118;-1.690;2022-08-24T05:11:12;19.40;99.90
12504;DHT22;6316;48.118;-1.690;2022-08-24T05:13:38;19.40;99.90
12504;DHT22;6316;48.118;-1.690;2022-08-24T05:16:09;19.40;99.90
12504;DHT22;6316;48.118;-1.690;2022-08-24T05:18:36;19.40;99.90
12504;DHT22;6316;48.118;-1.690;2022-08-24T05:21:05;19.40;99.90
12504;DHT22;6316;48.118;-1.690;2022-08-24T05:23:31;19.40;99.90
12504;DHT22;6316;48.118;-1.690;2022-08-24T05:26:08;19.40;99.90
12504;DHT22;6316;48.118;-1.690;2022-08-24T05:28:35;19.40;99.90
12504;DHT22;6316;48.118;-1.690;2022-08-24T05:31:11;19.40;99.90
12504;DHT22;6316;48.118;-1.690;2022-08-24T05:33:37;19.40;99.90
12504;DHT22;6316;48.118;-1.690;2022-08-24T05:36:04;19.40;99.90
12504;DHT22;6316;48.118;-1.690;2022-08-24T05:38:31;19.30;99.90
12504;DHT22;6316;48.118;-1.690;2022-08-24T05:41:02;19.40;99.90
12504;DHT22;6316;48.118;-1.690;2022-08-24T05:43:28;19.40;99.90
12504;DHT22;6316;48.118;-1.690;2022-08-24T05:45:54;19.40;99.90
12504;DHT22;6316;48.118;-1.690;2022-08-24T05:48:20;19.40;99.90
12504;DHT22;6316;48.118;-1.690;2022-08-24T05:50:53;19.50;99.90
12504;DHT22;6316;48.118;-1.690;2022-08-24T05:53:19;19.50;99.90
12504;DHT22;6316;48.118;-1.690;2022-08-24T05:55:45;19.60;99.90
12504;DHT22;6316;48.118;-1.690;2022-08-24T05:58:11;19.60;99.90
12504;DHT22;6316;48.118;-1.690;2022-08-24T06:00:37;19.70;99.90
12504;DHT22;6316;48.118;-1.690;2022-08-24T06:03:02;19.70;99.90
12504;DHT22;6316;48.118;-1.690;2022-08-24T06:05:28;19.80;99.90
12504;DHT22;6316;48.118;-1.690;2022-08-24T06:07:54;19.80;99.90
12504;DHT22;6316;48.118;-1.690;2022-08-24T06:10:20;19.80;99.90
12504;DHT22;6316;48.118;-1.690;2022-08-24T06:12:45;19.80;99.90
12504;DHT22;6316;48.118;-1.690;2022-08-24T06:15:11;19.90;99.90
12504;DHT22;6316;48.118;-1.690;2022-08-24T06:17:38;19.90;99.90
12504;DHT22;6316;48.118;-1.690;2022-08-24T06:20:04;19.90;99.90
12504;DHT22;6316;48.118;-1.690;2022-08-24T06:22:30;19.90;99.90
12504;DHT22;6316;48.118;-1.690;2022-08-24T06:24:56;19.90;99.90
12504;DHT22;6316;48.118;-1.690;2022-08-24T06:27:40;20.00;99.90
12504;DHT22;6316;48.118;-1.690;2022-08-24T06:30:08;20.00;99.90
12504;DHT22;6316;48.118;-1.690;2022-08-24T06:32:35;20.00;99.90
12504;DHT22;6316;48.118;-1.690;2022-08-24T06:35:01;20.10;99.90
12504;DHT22;6316;48.118;-1.690;2022-08-24T06:37:27;20.10;99.90
12504;DHT22;6316;48.118;-1.690;2022-08-24T06:39:53;20.10;99.90
12504;DHT22;6316;48.118;-1.690;2022-08-24T06:42:20;20.20;99.90
12504;DHT22;6316;48.118;-1.690;2022-08-24T06:44:45;20.30;99.90
12504;DHT22;6316;48.118;-1.690;2022-08-24T06:47:11;20.50;99.90
12504;DHT22;6316;48.118;-1.690;2022-08-24T06:49:37;20.60;99.90
12504;DHT22;6316;48.118;-1.690;2022-08-24T06:52:03;20.70;99.90
12504;DHT22;6316;48.118;-1.690;2022-08-24T06:54:29;20.90;99.90
12504;DHT22;6316;48.118;-1.690;2022-08-24T06:56:55;21.00;99.90
12504;DHT22;6316;48.118;-1.690;2022-08-24T06:59:26;21.40;99.90
12504;DHT22;6316;48.118;-1.690;2022-08-24T07:01:52;22.80;99.90
12504;DHT22;6316;48.118;-1.690;2022-08-24T07:04:20;24.50;99.90
12504;DHT22;6316;48.118;-1.690;2022-08-24T07:06:45;26.00;99.90
12504;DHT22;6316;48.118;-1.690;2022-08-24T07:09:11;26.90;99.90
12504;DHT22;6316;48.118;-1.690;2022-08-24T07:11:37;27.30;99.90
12504;DHT22;6316;48.118;-1.690;2022-08-24T07:14:02;27.50;99.90
12504;DHT22;6316;48.118;-1.690;2022-08-24T07:16:28;27.70;99.90
12504;DHT22;6316;48.118;-1.690;2022-08-24T07:18:55;27.60;99.90
12504;DHT22;6316;48.118;-1.690;2022-08-24T07:21:21;27.40;99.90
12504;DHT22;6316;48.118;-1.690;2022-08-24T07:23:48;26.90;99.90
12504;DHT22;6316;48.118;-1.690;2022-08-24T07:26:16;26.50;99.90
12504;DHT22;6316;48.118;-1.690;2022-08-24T07:28:47;26.00;99.90
12504;DHT22;6316;48.118;-1.690;2022-08-24T07:31:12;25.50;99.90
12504;DHT22;6316;48.118;-1.690;2022-08-24T07:33:38;25.00;99.90
12504;DHT22;6316;48.118;-1.690;2022-08-24T07:36:04;24.60;99.90
12504;DHT22;6316;48.118;-1.690;2022-08-24T07:38:30;24.30;99.90
12504;DHT22;6316;48.118;-1.690;2022-08-24T07:40:58;24.10;99.90
12504;DHT22;6316;48.118;-1.690;2022-08-24T07:43:24;24.00;99.90
12504;DHT22;6316;48.118;-1.690;2022-08-24T07:45:49;23.90;99.90
12504;DHT22;6316;48.118;-1.690;2022-08-24T07:48:16;24.10;99.90
12504;DHT22;6316;48.118;-1.690;2022-08-24T07:50:42;24.10;99.90
12504;DHT22;6316;48.118;-1.690;2022-08-24T07:53:08;24.20;99.90
12504;DHT22;6316;48.118;-1.690;2022-08-24T07:55:33;24.20;99.90
12504;DHT22;6316;48.118;-1.690;2022-08-24T07:58:00;24.40;99.90
12504;DHT22;6316;48.118;-1.690;2022-08-24T08:00:26;24.50;99.90
12504;DHT22;6316;48.118;-1.690;2022-08-24T08:02:52;24.60;99.90
12504;DHT22;6316;48.118;-1.690;2022-08-24T08:05:20;24.60;99.90
12504;DHT22;6316;48.118;-1.690;2022-08-24T08:07:47;24.70;99.90
12504;DHT22;6316;48.118;-1.690;2022-08-24T08:10:13;24.80;99.90
12504;DHT22;6316;48.118;-1.690;2022-08-24T08:12:39;24.90;99.90
12504;DHT22;6316;48.118;-1.690;2022-08-24T08:15:05;25.00;99.90
12504;DHT22;6316;48.118;-1.690;2022-08-24T08:17:33;25.10;99.90
12504;DHT22;6316;48.118;-1.690;2022-08-24T08:19:59;25.20;99.90
12504;DHT22;6316;48.118;-1.690;2022-08-24T08:22:25;25.30;99.90
12504;DHT22;6316;48.118;-1.690;2022-08-24T08:25:09;25.40;99.90
12504;DHT22;6316;48.118;-1.690;2022-08-24T08:27:35;25.60;99.90
12504;DHT22;6316;48.118;-1.690;2022-08-24T08:30:02;25.80;99.90
12504;DHT22;6316;48.118;-1.690;2022-08-24T08:32:28;25.90;99.90
12504;DHT22;6316;48.118;-1.690;2022-08-24T08:34:55;26.50;99.90
12504;DHT22;6316;48.118;-1.690;2022-08-24T08:37:21;27.40;99.90
12504;DHT22;6316;48.118;-1.690;2022-08-24T08:39:47;28.10;99.90
12504;DHT22;6316;48.118;-1.690;2022-08-24T08:42:29;28.30;99.90
12504;DHT22;6316;48.118;-1.690;2022-08-24T08:50:05;29.10;99.90
12504;DHT22;6316;48.118;-1.690;2022-08-24T09:20:49;28.60;99.90
12504;DHT22;6316;48.118;-1.690;2022-08-24T09:26:08;27.70;99.90
12504;DHT22;6316;48.118;-1.690;2022-08-24T09:33:43;27.20;99.90
12504;DHT22;6316;48.118;-1.690;2022-08-24T09:36:31;27.00;99.90
12504;DHT22;6316;48.118;-1.690;2022-08-24T09:39:05;27.00;99.90
12504;DHT22;6316;48.118;-1.690;2022-08-24T09:44:27;26.80;99.90
12504;DHT22;6316;48.118;-1.690;2022-08-24T09:50:15;26.70;99.90
12504;DHT22;6316;48.118;-1.690;2022-08-24T10:08:07;27.10;99.90
12504;DHT22;6316;48.118;-1.690;2022-08-24T10:18:00;27.30;99.90
12504;DHT22;6316;48.118;-1.690;2022-08-24T10:26:00;27.60;99.90
12504;DHT22;6316;48.118;-1.690;2022-08-24T10:31:06;27.90;99.90
12504;DHT22;6316;48.118;-1.690;2022-08-24T10:36:30;28.40;99.90
12504;DHT22;6316;48.118;-1.690;2022-08-24T10:46:59;28.90;99.90
12504;DHT22;6316;48.118;-1.690;2022-08-24T10:54:31;29.00;99.90
12504;DHT22;6316;48.118;-1.690;2022-08-24T11:02:29;29.20;99.90
12504;DHT22;6316;48.118;-1.690;2022-08-24T11:04:56;29.30;99.90
12504;DHT22;6316;48.118;-1.690;2022-08-24T11:07:23;29.30;99.90
12504;DHT22;6316;48.118;-1.690;2022-08-24T11:12:23;29.40;99.90
12504;DHT22;6316;48.118;-1.690;2022-08-24T11:14:50;29.30;99.90
12504;DHT22;6316;48.118;-1.690;2022-08-24T11:17:18;29.30;99.90
12504;DHT22;6316;48.118;-1.690;2022-08-24T11:19:44;29.20;99.90
12504;DHT22;6316;48.118;-1.690;2022-08-24T11:24:48;29.10;99.90
12504;DHT22;6316;48.118;-1.690;2022-08-24T11:34:50;29.00;99.90
12504;DHT22;6316;48.118;-1.690;2022-08-24T11:37:16;29.10;99.90
12504;DHT22;6316;48.118;-1.690;2022-08-24T11:39:46;29.10;99.90
12504;DHT22;6316;48.118;-1.690;2022-08-24T11:52:44;29.40;99.90
12504;DHT22;6316;48.118;-1.690;2022-08-24T11:55:21;29.40;99.90
12504;DHT22;6316;48.118;-1.690;2022-08-24T11:57:52;29.30;99.90
12504;DHT22;6316;48.118;-1.690;2022-08-24T12:00:21;29.20;99.90
12504;DHT22;6316;48.118;-1.690;2022-08-24T12:05:35;29.00;99.90
12504;DHT22;6316;48.118;-1.690;2022-08-24T12:08:19;28.90;99.90
12504;DHT22;6316;48.118;-1.690;2022-08-24T12:10:57;28.80;99.90
12504;DHT22;6316;48.118;-1.690;2022-08-24T12:16:10;28.70;99.90
12504;DHT22;6316;48.118;-1.690;2022-08-24T12:18:54;28.70;99.90
12504;DHT22;6316;48.118;-1.690;2022-08-24T12:21:23;28.60;99.90
12504;DHT22;6316;48.118;-1.690;2022-08-24T12:23:59;28.60;99.90
12504;DHT22;6316;48.118;-1.690;2022-08-24T12:26:28;28.60;99.90
12504;DHT22;6316;48.118;-1.690;2022-08-24T12:28:59;28.70;99.90
12504;DHT22;6316;48.118;-1.690;2022-08-24T12:34:00;28.90;99.90
12504;DHT22;6316;48.118;-1.690;2022-08-24T12:39:13;29.10;99.90
12504;DHT22;6316;48.118;-1.690;2022-08-24T12:44:48;29.10;99.90
12504;DHT22;6316;48.118;-1.690;2022-08-24T12:47:18;29.00;99.90
12504;DHT22;6316;48.118;-1.690;2022-08-24T12:49:45;29.00;99.90
12504;DHT22;6316;48.118;-1.690;2022-08-24T12:54:46;29.00;99.90
12504;DHT22;6316;48.118;-1.690;2022-08-24T12:59:51;29.00;99.90
12504;DHT22;6316;48.118;-1.690;2022-08-24T13:10:08;29.60;99.90
12504;DHT22;6316;48.118;-1.690;2022-08-24T13:17:54;29.90;99.90
12504;DHT22;6316;48.118;-1.690;2022-08-24T13:20:21;29.90;99.90
12504;DHT22;6316;48.118;-1.690;2022-08-24T13:23:33;29.90;99.90
12504;DHT22;6316;48.118;-1.690;2022-08-24T13:25:40;29.90;99.90
12504;DHT22;6316;48.118;-1.690;2022-08-24T13:28:25;29.90;99.90
12504;DHT22;6316;48.118;-1.690;2022-08-24T13:33:25;30.00;99.90
12504;DHT22;6316;48.118;-1.690;2022-08-24T13:35:56;30.00;99.90
12504;DHT22;6316;48.118;-1.690;2022-08-24T13:40:50;30.10;99.90
12504;DHT22;6316;48.118;-1.690;2022-08-24T13:43:18;30.20;99.90
12504;DHT22;6316;48.118;-1.690;2022-08-24T13:45:50;30.30;99.90
12504;DHT22;6316;48.118;-1.690;2022-08-24T13:48:21;30.40;99.90
12504;DHT22;6316;48.118;-1.690;2022-08-24T13:56:17;30.30;99.90
12504;DHT22;6316;48.118;-1.690;2022-08-24T14:04:18;30.30;99.90
12504;DHT22;6316;48.118;-1.690;2022-08-24T14:06:55;30.20;99.90
12504;DHT22;6316;48.118;-1.690;2022-08-24T14:20:04;30.40;99.90
12504;DHT22;6316;48.118;-1.690;2022-08-24T14:25:31;30.80;99.90
12504;DHT22;6316;48.118;-1.690;2022-08-24T14:35:42;31.30;99.90
12504;DHT22;6316;48.118;-1.690;2022-08-24T14:38:12;31.40;99.90
12504;DHT22;6316;48.118;-1.690;2022-08-24T14:45:57;31.50;99.90
12504;DHT22;6316;48.118;-1.690;2022-08-24T14:56:05;31.30;99.90
12504;DHT22;6316;48.118;-1.690;2022-08-24T15:01:02;31.10;99.90
12504;DHT22;6316;48.118;-1.690;2022-08-24T15:08:46;31.00;99.90
12504;DHT22;6316;48.118;-1.690;2022-08-24T15:11:15;31.00;99.90
12504;DHT22;6316;48.118;-1.690;2022-08-24T15:16:19;31.00;99.90
12504;DHT22;6316;48.118;-1.690;2022-08-24T15:26:27;30.80;99.90
12504;DHT22;6316;48.118;-1.690;2022-08-24T15:28:53;30.80;99.90
12504;DHT22;6316;48.118;-1.690;2022-08-24T15:31:21;30.80;99.90
12504;DHT22;6316;48.118;-1.690;2022-08-24T15:34:00;30.80;99.90
12504;DHT22;6316;48.118;-1.690;2022-08-24T15:36:26;30.80;99.90
12504;DHT22;6316;48.118;-1.690;2022-08-24T15:38:54;30.80;99.90
12504;DHT22;6316;48.118;-1.690;2022-08-24T15:41:23;30.80;99.90
12504;DHT22;6316;48.118;-1.690;2022-08-24T15:43:57;30.80;99.90
12504;DHT22;6316;48.118;-1.690;2022-08-24T15:49:02;30.80;99.90
12504;DHT22;6316;48.118;-1.690;2022-08-24T15:51:52;30.80;99.90
12504;DHT22;6316;48.118;-1.690;2022-08-24T15:59:30;30.80;99.90
12504;DHT22;6316;48.118;-1.690;2022-08-24T16:02:42;30.80;99.90
12504;DHT22;6316;48.118;-1.690;2022-08-24T16:07:25;30.90;99.80
12504;DHT22;6316;48.118;-1.690;2022-08-24T16:10:55;30.90;99.80
12504;DHT22;6316;48.118;-1.690;2022-08-24T16:12:50;30.90;99.80
12504;DHT22;6316;48.118;-1.690;2022-08-24T16:15:16;30.90;99.70
12504;DHT22;6316;48.118;-1.690;2022-08-24T16:17:47;30.90;99.70
12504;DHT22;6316;48.118;-1.690;2022-08-24T16:20:16;30.90;99.70
12504;DHT22;6316;48.118;-1.690;2022-08-24T16:22:56;30.80;99.70
12504;DHT22;6316;48.118;-1.690;2022-08-24T16:25:23;30.80;99.70
12504;DHT22;6316;48.118;-1.690;2022-08-24T16:30:22;30.70;99.60
12504;DHT22;6316;48.118;-1.690;2022-08-24T16:32:52;30.70;99.60
12504;DHT22;6316;48.118;-1.690;2022-08-24T16:35:19;30.70;99.60
12504;DHT22;6316;48.118;-1.690;2022-08-24T16:37:45;30.60;99.60
12504;DHT22;6316;48.118;-1.690;2022-08-24T16:40:10;30.50;99.60
12504;DHT22;6316;48.118;-1.690;2022-08-24T16:42:36;30.50;99.60
12504;DHT22;6316;48.118;-1.690;2022-08-24T16:45:05;30.50;99.60
12504;DHT22;6316;48.118;-1.690;2022-08-24T16:47:32;30.60;99.70
12504;DHT22;6316;48.118;-1.690;2022-08-24T16:49:57;30.60;99.60
12504;DHT22;6316;48.118;-1.690;2022-08-24T16:52:23;30.60;99.60
12504;DHT22;6316;48.118;-1.690;2022-08-24T16:54:48;30.60;99.60
12504;DHT22;6316;48.118;-1.690;2022-08-24T16:57:19;30.60;99.50
12504;DHT22;6316;48.118;-1.690;2022-08-24T16:59:46;30.50;99.50
12504;DHT22;6316;48.118;-1.690;2022-08-24T17:02:12;30.50;99.50
12504;DHT22;6316;48.118;-1.690;2022-08-24T17:04:38;30.50;99.50
12504;DHT22;6316;48.118;-1.690;2022-08-24T17:07:05;30.50;99.50
12504;DHT22;6316;48.118;-1.690;2022-08-24T17:09:31;30.50;99.50
12504;DHT22;6316;48.118;-1.690;2022-08-24T17:11:58;30.50;99.50
12504;DHT22;6316;48.118;-1.690;2022-08-24T17:14:24;30.50;99.40
12504;DHT22;6316;48.118;-1.690;2022-08-24T17:16:50;30.50;99.40
12504;DHT22;6316;48.118;-1.690;2022-08-24T17:19:16;30.50;99.40
12504;DHT22;6316;48.118;-1.690;2022-08-24T17:21:42;30.50;99.40
12504;DHT22;6316;48.118;-1.690;2022-08-24T17:24:08;30.50;99.40
12504;DHT22;6316;48.118;-1.690;2022-08-24T17:26:34;30.50;99.40
12504;DHT22;6316;48.118;-1.690;2022-08-24T17:29:01;30.40;99.40
12504;DHT22;6316;48.118;-1.690;2022-08-24T17:31:27;30.40;99.70
12504;DHT22;6316;48.118;-1.690;2022-08-24T17:33:55;30.40;99.40
12504;DHT22;6316;48.118;-1.690;2022-08-24T17:36:20;30.40;99.40
12504;DHT22;6316;48.118;-1.690;2022-08-24T17:38:47;30.40;99.40
12504;DHT22;6316;48.118;-1.690;2022-08-24T17:41:14;30.30;99.30
12504;DHT22;6316;48.118;-1.690;2022-08-24T17:43:40;30.30;99.30
12504;DHT22;6316;48.118;-1.690;2022-08-24T17:46:07;30.20;99.30
12504;DHT22;6316;48.118;-1.690;2022-08-24T17:48:34;30.20;99.30
12504;DHT22;6316;48.118;-1.690;2022-08-24T17:51:00;30.20;99.30
12504;DHT22;6316;48.118;-1.690;2022-08-24T17:53:25;30.10;99.30
12504;DHT22;6316;48.118;-1.690;2022-08-24T17:55:51;30.10;99.30
12504;DHT22;6316;48.118;-1.690;2022-08-24T17:58:17;30.00;99.30
12504;DHT22;6316;48.118;-1.690;2022-08-24T18:00:42;30.00;99.30
12504;DHT22;6316;48.118;-1.690;2022-08-24T18:03:08;29.90;99.40
12504;DHT22;6316;48.118;-1.690;2022-08-24T18:05:33;29.80;99.40
12504;DHT22;6316;48.118;-1.690;2022-08-24T18:08:00;29.80;99.40
12504;DHT22;6316;48.118;-1.690;2022-08-24T18:10:27;29.70;99.40
12504;DHT22;6316;48.118;-1.690;2022-08-24T18:12:54;29.60;99.30
12504;DHT22;6316;48.118;-1.690;2022-08-24T18:15:20;29.60;99.40
12504;DHT22;6316;48.118;-1.690;2022-08-24T18:17:47;29.50;99.40
12504;DHT22;6316;48.118;-1.690;2022-08-24T18:20:14;29.50;99.40
12504;DHT22;6316;48.118;-1.690;2022-08-24T18:22:41;29.40;99.40
12504;DHT22;6316;48.118;-1.690;2022-08-24T18:25:11;29.40;99.40
12504;DHT22;6316;48.118;-1.690;2022-08-24T18:27:37;29.40;99.40
12504;DHT22;6316;48.118;-1.690;2022-08-24T18:30:04;29.30;99.40
12504;DHT22;6316;48.118;-1.690;2022-08-24T18:32:30;29.30;99.40
12504;DHT22;6316;48.118;-1.690;2022-08-24T18:34:55;29.20;99.40
12504;DHT22;6316;48.118;-1.690;2022-08-24T18:37:21;29.20;99.40
12504;DHT22;6316;48.118;-1.690;2022-08-24T18:39:48;29.10;99.40
12504;DHT22;6316;48.118;-1.690;2022-08-24T18:42:13;29.10;99.40
12504;DHT22;6316;48.118;-1.690;2022-08-24T18:44:39;29.00;99.40
12504;DHT22;6316;48.118;-1.690;2022-08-24T18:47:05;29.00;99.40
12504;DHT22;6316;48.118;-1.690;2022-08-24T18:49:31;28.90;99.40
12504;DHT22;6316;48.118;-1.690;2022-08-24T18:51:57;28.90;99.40
12504;DHT22;6316;48.118;-1.690;2022-08-24T18:54:28;28.90;99.40
12504;DHT22;6316;48.118;-1.690;2022-08-24T18:56:56;28.80;99.40
12504;DHT22;6316;48.118;-1.690;2022-08-24T18:59:22;28.70;99.40
12504;DHT22;6316;48.118;-1.690;2022-08-24T19:01:49;28.60;99.40
12504;DHT22;6316;48.118;-1.690;2022-08-24T19:04:38;28.50;99.40
12504;DHT22;6316;48.118;-1.690;2022-08-24T19:07:06;28.40;99.40
12504;DHT22;6316;48.118;-1.690;2022-08-24T19:09:31;28.30;99.50
12504;DHT22;6316;48.118;-1.690;2022-08-24T19:11:57;28.20;99.50
12504;DHT22;6316;48.118;-1.690;2022-08-24T19:14:22;28.10;99.50
12504;DHT22;6316;48.118;-1.690;2022-08-24T19:16:48;28.10;99.60
12504;DHT22;6316;48.118;-1.690;2022-08-24T19:19:14;27.90;99.50
12504;DHT22;6316;48.118;-1.690;2022-08-24T19:21:39;27.90;99.60
12504;DHT22;6316;48.118;-1.690;2022-08-24T19:24:05;27.80;99.60
12504;DHT22;6316;48.118;-1.690;2022-08-24T19:26:32;27.60;99.60
12504;DHT22;6316;48.118;-1.690;2022-08-24T19:28:58;27.60;99.70
12504;DHT22;6316;48.118;-1.690;2022-08-24T19:31:24;27.50;99.70
12504;DHT22;6316;48.118;-1.690;2022-08-24T19:33:50;27.40;99.80
12504;DHT22;6316;48.118;-1.690;2022-08-24T19:36:16;27.40;99.80